Terminal Aerodrome Forecast
Issued by NWS

Home | Current Version | Previous Version | Text Only | Print | Product List | Glossary On
Versions: 1 2 3 4 5 6 7 8 9 10 11 12 13 14 15 16
000
FTUS42 KMHX 060537
TAFPGV
TAF
KPGV 060537Z 0606/0706 07005KT 5SM -RA BR SCT025 OVC060
     FM060900 05007KT 5SM -RA BR SCT007 OVC025
     FM061300 07010G15KT 3SM RA BR OVC006
     FM062100 35010G15KT P6SM VCSH OVC007
     FM062300 28008KT P6SM BKN007
      AMD LTD TO CLD VIS AND WIND=

USA.gov is the U.S. government's official web portal to all federal, state and local government web resources and services.